createdAt,value
2023-06-27T00:00:18.287Z,63.11
2023-06-27T00:01:18.395Z,63.18
2023-06-27T00:02:18.579Z,63.35
2023-06-27T00:03:18.668Z,63.41
2023-06-27T00:04:18.733Z,63.51
2023-06-27T00:05:18.835Z,63.72
2023-06-27T00:06:18.962Z,63.41
2023-06-27T00:07:19.138Z,63.47
2023-06-27T00:08:19.167Z,63.79
2023-06-27T00:09:19.319Z,63.92
2023-06-27T00:10:19.427Z,63.86
2023-06-27T00:11:19.506Z,64.07
2023-06-27T00:12:19.695Z,64.41
2023-06-27T00:13:19.813Z,64.63
2023-06-27T00:14:19.917Z,64.56
2023-06-27T00:15:20.143Z,65.21
2023-06-27T00:16:20.165Z,65.02
2023-06-27T00:17:20.376Z,64.82
2023-06-27T00:18:20.517Z,64.68
2023-06-27T00:19:20.557Z,64.77
2023-06-27T00:20:20.655Z,64.74
2023-06-27T00:21:20.756Z,64.72
2023-06-27T00:22:20.912Z,64.89
2023-06-27T00:23:21.031Z,64.89
2023-06-27T00:24:21.133Z,64.99
2023-06-27T00:25:21.285Z,65.19
2023-06-27T00:26:21.435Z,65.31
2023-06-27T00:27:21.699Z,65.41
2023-06-27T00:28:21.651Z,65.53
2023-06-27T00:29:21.809Z,65.61
2023-06-27T00:30:21.918Z,65.72
2023-06-27T00:31:22.145Z,65.80
2023-06-27T00:32:22.258Z,65.96
2023-06-27T00:33:22.293Z,65.89
2023-06-27T00:34:22.392Z,66.17
2023-06-27T00:35:22.481Z,66.24
2023-06-27T00:36:22.637Z,66.04
2023-06-27T00:37:22.738Z,66.05
2023-06-27T00:38:22.833Z,66.18
2023-06-27T00:39:22.953Z,66.29
2023-06-27T00:40:23.050Z,66.62
2023-06-27T00:41:23.204Z,66.53
2023-06-27T00:42:23.357Z,66.39
2023-06-27T00:43:23.456Z,66.46
2023-06-27T00:44:23.560Z,66.42
2023-06-27T00:45:23.651Z,66.69
2023-06-27T00:46:23.777Z,66.55
2023-06-27T00:47:23.939Z,66.61
2023-06-27T00:48:24.004Z,66.39
2023-06-27T00:49:24.131Z,66.46
2023-06-27T00:50:24.303Z,66.50
2023-06-27T00:51:24.426Z,66.59
2023-06-27T00:52:24.564Z,66.86
2023-06-27T00:53:24.659Z,66.81
2023-06-27T00:54:24.797Z,66.94
2023-06-27T00:55:24.902Z,67.01
2023-06-27T00:56:25.003Z,67.36
2023-06-27T00:57:25.086Z,67.00
2023-06-27T00:58:25.222Z,67.05
2023-06-27T00:59:25.326Z,67.20
2023-06-27T01:00:25.455Z,66.99
2023-06-27T01:01:25.610Z,66.94
2023-06-27T01:02:25.898Z,67.03
2023-06-27T01:03:25.892Z,67.07
2023-06-27T01:04:25.921Z,67.39
2023-06-27T01:05:26.054Z,67.52
2023-06-27T01:06:26.217Z,67.41
2023-06-27T01:07:26.404Z,67.60
2023-06-27T01:08:26.460Z,67.75
2023-06-27T01:09:26.553Z,67.84
2023-06-27T01:10:26.672Z,67.80
2023-06-27T01:11:26.818Z,67.77
2023-06-27T01:12:26.942Z,67.81
2023-06-27T01:13:27.025Z,67.87
2023-06-27T01:14:27.163Z,67.91
2023-06-27T01:15:27.312Z,67.99
2023-06-27T01:16:27.420Z,67.90
2023-06-27T01:17:27.597Z,68.10
2023-06-27T01:18:27.676Z,68.09
2023-06-27T01:19:27.821Z,68.20
2023-06-27T01:20:27.957Z,68.23
2023-06-27T01:21:28.116Z,68.18
2023-06-27T01:22:28.311Z,68.35
2023-06-27T01:23:28.370Z,68.50
2023-06-27T01:24:28.479Z,68.53
2023-06-27T01:25:28.625Z,68.53
2023-06-27T01:26:28.792Z,68.70
2023-06-27T01:27:28.882Z,68.69
2023-06-27T01:28:28.991Z,68.83
2023-06-27T01:29:29.104Z,68.80
2023-06-27T01:30:29.268Z,68.80
2023-06-27T01:31:29.463Z,68.99
2023-06-27T01:32:29.548Z,69.13
2023-06-27T01:33:29.596Z,69.26
2023-06-27T01:34:29.677Z,69.19
2023-06-27T01:35:29.822Z,69.25
2023-06-27T01:36:29.994Z,69.56
2023-06-27T01:37:30.160Z,69.50
2023-06-27T01:38:30.240Z,69.43
2023-06-27T01:39:30.443Z,69.35
2023-06-27T01:40:30.513Z,69.64
2023-06-27T01:41:30.718Z,69.65
2023-06-27T01:42:30.830Z,69.90
2023-06-27T01:43:30.940Z,69.93
2023-06-27T01:44:31.034Z,69.88
2023-06-27T01:45:31.206Z,69.87
2023-06-27T01:46:31.287Z,69.89
2023-06-27T01:47:31.431Z,70.01
2023-06-27T01:48:31.517Z,70.07
2023-06-27T01:49:31.656Z,70.15
2023-06-27T01:50:31.817Z,70.37
2023-06-27T01:51:31.918Z,70.48
2023-06-27T01:52:32.032Z,70.49
2023-06-27T01:53:32.153Z,70.49
2023-06-27T01:54:32.253Z,70.63
2023-06-27T01:55:32.338Z,70.54
2023-06-27T01:56:32.494Z,70.59
2023-06-27T01:57:32.634Z,70.67
2023-06-27T01:58:32.730Z,70.65
2023-06-27T01:59:32.872Z,70.72
2023-06-27T02:00:32.969Z,70.68
2023-06-27T02:01:33.175Z,70.65
2023-06-27T02:02:33.356Z,70.75
2023-06-27T02:03:33.386Z,70.69
2023-06-27T02:04:33.454Z,70.94
2023-06-27T02:05:33.588Z,71.00
2023-06-27T02:06:33.725Z,70.93
2023-06-27T02:07:33.819Z,71.06
2023-06-27T02:08:33.967Z,71.12
2023-06-27T02:09:34.102Z,71.18
2023-06-27T02:10:34.198Z,71.12
2023-06-27T02:11:34.335Z,71.41
2023-06-27T02:12:34.562Z,71.38
2023-06-27T02:13:34.599Z,71.84
2023-06-27T02:14:34.708Z,71.91
2023-06-27T02:15:34.804Z,71.88
2023-06-27T02:16:34.895Z,72.05
2023-06-27T02:17:35.075Z,72.01
2023-06-27T02:18:35.178Z,72.06
2023-06-27T02:19:35.310Z,71.97
2023-06-27T02:20:35.416Z,72.28
2023-06-27T02:21:35.561Z,72.25
2023-06-27T02:22:35.797Z,72.23
2023-06-27T02:23:35.820Z,72.21
2023-06-27T02:24:35.957Z,72.34
2023-06-27T02:25:36.234Z,72.41
2023-06-27T02:26:36.225Z,72.35
2023-06-27T02:27:36.389Z,72.34
2023-06-27T02:28:38.438Z,72.48
2023-06-27T02:29:36.591Z,72.44
2023-06-27T02:30:36.752Z,72.50
2023-06-27T02:31:36.840Z,72.41
2023-06-27T02:32:37.056Z,72.52
2023-06-27T02:33:37.067Z,72.66
2023-06-27T02:34:37.171Z,72.83
2023-06-27T02:35:37.461Z,72.92
2023-06-27T02:36:37.427Z,72.80
2023-06-27T02:37:37.603Z,73.11
2023-06-27T02:38:37.692Z,73.06
2023-06-27T02:39:37.797Z,73.23
2023-06-27T02:40:37.938Z,73.34
2023-06-27T02:41:38.037Z,73.35
2023-06-27T02:42:38.168Z,73.24
2023-06-27T02:43:38.256Z,73.37
2023-06-27T02:44:38.397Z,73.53
2023-06-27T02:45:38.871Z,73.48
2023-06-27T02:46:38.681Z,73.69
2023-06-27T02:47:38.840Z,73.72
2023-06-27T02:48:38.904Z,73.69
2023-06-27T02:49:39.006Z,73.59
2023-06-27T02:50:39.177Z,73.75
2023-06-27T02:51:39.254Z,73.97
2023-06-27T02:52:39.383Z,73.88
2023-06-27T02:53:39.484Z,73.82
2023-06-27T02:54:39.596Z,73.86
2023-06-27T02:55:40.025Z,73.88
2023-06-27T02:56:39.787Z,73.88
2023-06-27T02:57:39.937Z,73.87
2023-06-27T02:58:40.032Z,73.93
2023-06-27T02:59:40.126Z,74.01
2023-06-27T03:00:40.264Z,73.83
2023-06-27T03:01:40.403Z,73.76
2023-06-27T03:02:40.607Z,73.79
2023-06-27T03:03:40.697Z,73.83
2023-06-27T03:04:40.783Z,73.72
2023-06-27T03:05:41.204Z,73.67
2023-06-27T03:06:41.018Z,73.72
2023-06-27T03:07:41.116Z,73.57
2023-06-27T03:08:41.232Z,73.56
2023-06-27T03:09:41.332Z,73.53
2023-06-27T03:10:41.477Z,73.43
2023-06-27T03:11:41.630Z,73.47
2023-06-27T03:12:41.748Z,73.13
2023-06-27T03:13:41.941Z,73.28
2023-06-27T03:14:42.036Z,73.14
2023-06-27T03:15:42.407Z,72.97
2023-06-27T03:16:42.298Z,73.04
2023-06-27T03:17:43.031Z,72.92
2023-06-27T03:18:42.538Z,72.87
2023-06-27T03:19:44.584Z,72.87
2023-06-27T03:20:42.794Z,72.85
2023-06-27T03:21:42.915Z,72.78
2023-06-27T03:22:43.013Z,72.70
2023-06-27T03:23:43.205Z,72.59
2023-06-27T03:24:43.249Z,72.55
2023-06-27T03:25:43.344Z,72.41
2023-06-27T03:26:43.452Z,72.37
2023-06-27T03:27:43.599Z,72.42
2023-06-27T03:28:43.786Z,72.35
2023-06-27T03:29:43.898Z,72.53
2023-06-27T03:30:44.011Z,72.36
2023-06-27T03:31:44.282Z,72.38
2023-06-27T03:32:44.389Z,72.27
2023-06-27T03:33:44.485Z,72.38
2023-06-27T03:34:44.606Z,72.30
2023-06-27T03:35:44.683Z,72.23
2023-06-27T03:36:44.806Z,72.28
2023-06-27T03:37:44.935Z,72.37
2023-06-27T03:38:45.036Z,72.35
2023-06-27T03:39:45.152Z,72.38
2023-06-27T03:40:45.305Z,72.54
2023-06-27T03:41:45.448Z,72.52
2023-06-27T03:42:45.559Z,72.47
2023-06-27T03:43:45.708Z,72.59
2023-06-27T03:44:45.791Z,72.70
2023-06-27T03:45:45.892Z,72.63
2023-06-27T03:46:45.996Z,72.76
2023-06-27T03:47:46.108Z,72.83
2023-06-27T03:48:46.191Z,72.96
2023-06-27T03:49:46.297Z,73.10
2023-06-27T03:50:46.394Z,72.96
2023-06-27T03:51:46.541Z,73.02
2023-06-27T03:52:46.633Z,73.16
2023-06-27T03:53:46.848Z,73.11
2023-06-27T03:54:47.009Z,73.27
2023-06-27T03:55:47.030Z,73.04
2023-06-27T03:56:47.175Z,73.22
2023-06-27T03:57:47.313Z,73.24
2023-06-27T03:58:47.498Z,73.05
2023-06-27T03:59:47.595Z,73.13
2023-06-27T04:00:47.759Z,73.24
2023-06-27T04:01:47.842Z,73.34
2023-06-27T04:02:48.001Z,73.12
2023-06-27T04:03:48.190Z,73.17
2023-06-27T04:04:48.363Z,73.14
2023-06-27T04:05:48.335Z,73.19
2023-06-27T04:06:48.469Z,73.38
2023-06-27T04:07:48.559Z,73.54
2023-06-27T04:08:48.693Z,73.45
2023-06-27T04:09:48.793Z,73.24
2023-06-27T04:10:48.881Z,73.42
2023-06-27T04:11:49.018Z,73.53
2023-06-27T04:12:49.157Z,73.61
2023-06-27T04:13:49.336Z,73.52
2023-06-27T04:14:49.441Z,73.54
2023-06-27T04:15:49.557Z,73.40
2023-06-27T04:16:49.708Z,73.63
2023-06-27T04:17:49.913Z,73.76
2023-06-27T04:18:49.984Z,73.58
2023-06-27T04:19:50.070Z,73.69
2023-06-27T04:20:50.171Z,73.67
2023-06-27T04:21:50.315Z,73.62
2023-06-27T04:22:50.452Z,73.83
2023-06-27T04:23:50.674Z,73.71
2023-06-27T04:24:50.747Z,73.76
2023-06-27T04:25:51.761Z,73.79
2023-06-27T04:26:50.956Z,73.84
2023-06-27T04:27:51.051Z,73.93
2023-06-27T04:28:51.209Z,73.96
2023-06-27T04:29:51.311Z,73.96
2023-06-27T04:30:51.424Z,73.90
2023-06-27T04:31:51.753Z,74.12
2023-06-27T04:32:51.757Z,74.28
2023-06-27T04:33:51.868Z,74.40
2023-06-27T04:34:51.964Z,74.17
2023-06-27T04:35:52.063Z,74.30
2023-06-27T04:36:52.196Z,74.38
2023-06-27T04:37:52.264Z,73.98
2023-06-27T04:38:52.435Z,74.03
2023-06-27T04:39:52.542Z,74.28
2023-06-27T04:40:52.643Z,74.34
2023-06-27T04:41:52.792Z,73.96
2023-06-27T04:42:52.926Z,73.91
2023-06-27T04:43:53.100Z,74.15
2023-06-27T04:44:53.186Z,73.68
2023-06-27T04:45:53.301Z,74.15
2023-06-27T04:46:53.454Z,74.19
2023-06-27T04:47:53.552Z,73.78
2023-06-27T04:48:53.697Z,73.64
2023-06-27T04:49:53.804Z,73.95
2023-06-27T04:50:53.914Z,73.57
2023-06-27T04:51:54.026Z,73.91
2023-06-27T04:52:54.142Z,73.82
2023-06-27T04:53:54.288Z,73.76
2023-06-27T04:54:54.571Z,73.53
2023-06-27T04:55:54.570Z,73.60
2023-06-27T04:57:07.975Z,73.40
2023-06-27T04:57:55.832Z,73.78
2023-06-27T04:58:54.903Z,73.96
2023-06-27T04:59:55.068Z,73.85
2023-06-27T05:00:55.195Z,73.27
2023-06-27T05:01:55.251Z,73.05
2023-06-27T05:02:55.480Z,73.13
2023-06-27T05:03:55.544Z,73.19
2023-06-27T05:04:56.492Z,73.08
2023-06-27T05:05:55.890Z,72.86
2023-06-27T05:06:55.997Z,72.52
2023-06-27T05:07:56.078Z,72.92
2023-06-27T05:08:56.214Z,73.14
2023-06-27T05:09:56.307Z,72.46
2023-06-27T05:10:56.477Z,72.57
2023-06-27T05:11:56.572Z,72.73
2023-06-27T05:12:56.676Z,72.77
2023-06-27T05:13:56.784Z,72.58
2023-06-27T05:14:56.949Z,72.70
2023-06-27T05:15:57.066Z,72.06
2023-06-27T05:16:57.146Z,72.26
2023-06-27T05:17:57.420Z,72.10
2023-06-27T05:18:57.415Z,72.40
2023-06-27T05:19:57.524Z,72.04
2023-06-27T05:20:57.656Z,71.54
2023-06-27T05:21:57.757Z,71.80
2023-06-27T05:22:57.857Z,71.48
2023-06-27T05:23:57.998Z,71.25
2023-06-27T05:24:58.139Z,71.68
2023-06-27T05:25:58.331Z,71.38
2023-06-27T05:26:58.370Z,72.10
2023-06-27T05:27:58.535Z,71.35
2023-06-27T05:28:58.670Z,71.26
2023-06-27T05:29:58.768Z,70.32
2023-06-27T05:30:58.883Z,71.08
2023-06-27T05:31:58.960Z,70.51
2023-06-27T05:32:59.168Z,71.02
2023-06-27T05:33:59.192Z,70.51
2023-06-27T05:34:59.334Z,69.29
2023-06-27T05:35:59.461Z,69.55
2023-06-27T05:36:59.580Z,69.19
2023-06-27T05:37:59.696Z,68.89
2023-06-27T05:38:59.782Z,68.48
2023-06-27T05:39:59.916Z,68.07
2023-06-27T05:41:00.103Z,70.80
2023-06-27T05:42:00.197Z,69.91
2023-06-27T05:43:00.310Z,69.21
2023-06-27T05:44:00.395Z,68.25
2023-06-27T05:45:00.510Z,68.00
2023-06-27T05:46:00.770Z,68.37
2023-06-27T05:47:00.762Z,67.17
2023-06-27T05:48:00.968Z,67.43
2023-06-27T05:49:01.061Z,68.73
2023-06-27T05:50:01.203Z,68.22
2023-06-27T05:51:01.403Z,67.25
2023-06-27T05:52:01.495Z,66.97
2023-06-27T05:53:01.586Z,67.34
2023-06-27T05:54:01.761Z,66.71
2023-06-27T05:55:01.934Z,66.85
2023-06-27T05:56:01.975Z,67.67
2023-06-27T05:57:02.137Z,67.25
2023-06-27T05:58:02.228Z,67.08
2023-06-27T05:59:02.386Z,66.82
2023-06-27T06:00:02.533Z,66.88
2023-06-27T06:01:02.605Z,66.85
2023-06-27T06:02:02.737Z,66.91
2023-06-27T06:03:02.892Z,67.19
2023-06-27T06:04:03.026Z,66.89
2023-06-27T06:05:03.072Z,67.57
2023-06-27T06:06:03.168Z,66.91
2023-06-27T06:07:03.391Z,67.09
2023-06-27T06:08:03.461Z,66.47
2023-06-27T06:09:03.628Z,66.67
2023-06-27T06:10:03.767Z,67.10
2023-06-27T06:11:03.893Z,67.21
2023-06-27T06:12:04.040Z,66.48
2023-06-27T06:13:04.189Z,65.64
2023-06-27T06:14:04.298Z,66.45
2023-06-27T06:15:04.522Z,66.40
2023-06-27T06:16:04.554Z,66.20
2023-06-27T06:17:04.696Z,66.62
2023-06-27T06:18:04.885Z,66.43
2023-06-27T06:19:04.928Z,66.67
2023-06-27T06:20:05.061Z,66.07
2023-06-27T06:21:05.202Z,65.26
2023-06-27T06:22:05.378Z,65.51
2023-06-27T06:23:05.472Z,65.43
2023-06-27T06:24:05.614Z,65.69
2023-06-27T06:25:05.707Z,65.84
2023-06-27T06:26:05.852Z,66.85
2023-06-27T06:27:05.943Z,65.82
2023-06-27T06:28:06.094Z,65.52
2023-06-27T06:29:06.213Z,65.23
2023-06-27T06:30:06.375Z,65.77
2023-06-27T06:31:06.487Z,66.97
2023-06-27T06:32:06.618Z,65.88
2023-06-27T06:33:06.744Z,65.79
2023-06-27T06:34:06.801Z,65.56
2023-06-27T06:35:07.002Z,65.64
2023-06-27T06:36:07.051Z,66.21
2023-06-27T06:37:07.197Z,66.03
2023-06-27T06:38:08.556Z,65.88
2023-06-27T06:39:07.385Z,66.06
2023-06-27T06:40:07.552Z,65.57
2023-06-27T06:41:07.688Z,64.89
2023-06-27T06:42:07.874Z,65.47
2023-06-27T06:43:07.976Z,64.98
2023-06-27T06:44:08.103Z,66.08
2023-06-27T06:45:08.233Z,65.41
2023-06-27T06:46:08.466Z,65.18
2023-06-27T06:47:08.578Z,64.86
2023-06-27T06:48:08.635Z,63.89
2023-06-27T06:49:08.780Z,63.76
2023-06-27T06:50:08.933Z,64.20
2023-06-27T06:51:09.065Z,64.23
2023-06-27T06:52:09.183Z,64.69
2023-06-27T06:53:10.182Z,63.19
2023-06-27T06:54:09.384Z,63.15
2023-06-27T06:55:09.612Z,63.14
2023-06-27T06:56:09.602Z,62.97
2023-06-27T06:57:09.754Z,63.79
2023-06-27T06:58:11.772Z,64.59
2023-06-27T06:59:09.941Z,63.39
2023-06-27T07:00:10.106Z,62.52
2023-06-27T07:01:10.186Z,63.51
2023-06-27T07:02:10.329Z,62.76
2023-06-27T07:03:10.584Z,62.20
2023-06-27T07:04:10.656Z,62.61
2023-06-27T07:05:10.717Z,61.73
2023-06-27T07:06:10.826Z,62.94
2023-06-27T07:07:11.040Z,61.66
2023-06-27T07:08:11.107Z,60.98
2023-06-27T07:09:11.209Z,61.32
2023-06-27T07:10:11.302Z,61.74
2023-06-27T07:11:11.482Z,62.91
2023-06-27T07:12:11.570Z,61.67
2023-06-27T07:13:11.739Z,61.46
2023-06-27T07:14:11.798Z,60.33
2023-06-27T07:15:12.022Z,60.82
2023-06-27T07:16:12.100Z,61.23
2023-06-27T07:17:12.217Z,61.53
2023-06-27T07:18:12.367Z,60.96
2023-06-27T07:19:12.443Z,61.25
2023-06-27T07:20:12.543Z,61.27
2023-06-27T07:21:12.680Z,61.79
2023-06-27T07:22:12.797Z,62.18
2023-06-27T07:23:12.884Z,62.39
2023-06-27T07:24:13.007Z,59.57
2023-06-27T07:25:13.107Z,60.43
2023-06-27T07:26:13.216Z,60.40
2023-06-27T07:27:13.316Z,59.99
2023-06-27T07:28:13.537Z,61.24
2023-06-27T07:29:13.579Z,59.66
2023-06-27T07:30:13.688Z,59.55
2023-06-27T07:31:13.862Z,58.53
2023-06-27T07:32:13.920Z,58.76
2023-06-27T07:33:16.573Z,59.15
2023-06-27T07:34:14.230Z,58.28
2023-06-27T07:35:14.397Z,59.23
2023-06-27T07:36:14.471Z,58.52
2023-06-27T07:37:14.609Z,58.90
2023-06-27T07:38:14.765Z,58.64
2023-06-27T07:39:14.846Z,59.45
2023-06-27T07:40:14.980Z,58.89
2023-06-27T07:41:15.077Z,59.08
2023-06-27T07:42:15.199Z,59.99
2023-06-27T07:43:15.379Z,59.27
2023-06-27T07:44:15.477Z,58.97
2023-06-27T07:45:15.621Z,59.29
2023-06-27T07:46:15.786Z,59.07
2023-06-27T07:47:15.933Z,59.77
2023-06-27T07:48:16.068Z,59.27
2023-06-27T07:49:16.157Z,60.17
2023-06-27T07:50:16.310Z,58.23
2023-06-27T07:51:16.442Z,58.70
2023-06-27T07:52:16.536Z,57.44
2023-06-27T07:53:16.710Z,57.88
2023-06-27T07:54:16.799Z,58.05
2023-06-27T07:55:16.965Z,58.47
2023-06-27T07:56:17.057Z,57.60
2023-06-27T07:57:17.202Z,57.82
2023-06-27T07:58:17.416Z,58.45
2023-06-27T07:59:17.483Z,58.59
2023-06-27T08:00:17.619Z,57.79
2023-06-27T08:01:17.741Z,57.94
2023-06-27T08:02:17.915Z,58.02
2023-06-27T08:03:18.015Z,59.99
2023-06-27T08:04:18.158Z,58.56
2023-06-27T08:05:18.204Z,59.24
2023-06-27T08:06:18.356Z,60.02
2023-06-27T08:07:18.495Z,58.86
2023-06-27T08:08:19.689Z,58.34
2023-06-27T08:09:18.715Z,57.30
2023-06-27T08:10:18.844Z,57.23
2023-06-27T08:11:19.084Z,57.01
2023-06-27T08:12:19.143Z,58.08
2023-06-27T08:13:19.282Z,56.82
2023-06-27T08:14:19.404Z,57.61
2023-06-27T08:15:19.498Z,58.66
2023-06-27T08:16:19.607Z,56.97
2023-06-27T08:17:19.713Z,57.00
2023-06-27T08:18:19.882Z,56.22
2023-06-27T08:19:20.054Z,56.83
2023-06-27T08:20:20.102Z,57.71
2023-06-27T08:21:20.184Z,57.11
2023-06-27T08:22:20.294Z,55.60
2023-06-27T08:23:20.405Z,55.63
2023-06-27T08:24:20.529Z,55.43
2023-06-27T08:25:20.625Z,56.80
2023-06-27T08:26:20.780Z,57.18
2023-06-27T08:27:20.925Z,56.66
2023-06-27T08:28:21.034Z,55.60
2023-06-27T08:29:21.147Z,55.51
2023-06-27T08:30:21.253Z,54.78
2023-06-27T08:31:21.429Z,55.12
2023-06-27T08:32:21.548Z,55.16
2023-06-27T08:33:21.634Z,57.03
2023-06-27T08:34:21.739Z,56.76
2023-06-27T08:35:21.837Z,55.35
2023-06-27T08:36:21.991Z,55.62
2023-06-27T08:37:22.081Z,57.69
2023-06-27T08:38:24.088Z,56.48
2023-06-27T08:39:22.380Z,54.89
2023-06-27T08:40:22.615Z,55.94
2023-06-27T08:41:22.557Z,53.80
2023-06-27T08:42:22.671Z,53.93
2023-06-27T08:43:22.776Z,54.27
2023-06-27T08:44:22.879Z,53.79
2023-06-27T08:45:22.988Z,55.04
2023-06-27T08:46:23.072Z,55.02
2023-06-27T08:47:23.270Z,54.20
2023-06-27T08:48:23.391Z,54.89
2023-06-27T08:49:23.538Z,54.68
2023-06-27T08:50:23.650Z,54.79
2023-06-27T08:51:23.799Z,55.39
2023-06-27T08:52:23.899Z,54.94
2023-06-27T08:53:24.055Z,55.11
2023-06-27T08:54:24.156Z,54.51
2023-06-27T08:55:24.305Z,54.00
2023-06-27T08:56:24.411Z,54.21
2023-06-27T08:57:24.582Z,54.52
2023-06-27T08:58:24.667Z,54.12
2023-06-27T08:59:24.777Z,55.30
2023-06-27T09:00:24.879Z,53.61
2023-06-27T09:01:25.022Z,53.09
2023-06-27T09:02:25.227Z,53.71
2023-06-27T09:03:25.425Z,53.94
2023-06-27T09:04:25.466Z,54.32
2023-06-27T09:05:25.559Z,55.17
2023-06-27T09:06:25.815Z,53.66
2023-06-27T09:07:26.080Z,51.67
2023-06-27T09:08:25.947Z,54.50
2023-06-27T09:09:26.051Z,52.06
2023-06-27T09:10:26.144Z,51.98
2023-06-27T09:11:26.240Z,50.04
2023-06-27T09:12:26.346Z,51.30
2023-06-27T09:13:26.465Z,50.64
2023-06-27T09:14:26.613Z,50.45
2023-06-27T09:15:26.775Z,50.95
2023-06-27T09:16:26.872Z,51.47
2023-06-27T09:17:27.004Z,51.60
2023-06-27T09:18:27.078Z,52.56
2023-06-27T09:19:27.229Z,52.21
2023-06-27T09:20:27.280Z,52.62
2023-06-27T09:21:27.383Z,52.05
2023-06-27T09:22:27.551Z,51.04
2023-06-27T09:23:27.668Z,51.83
2023-06-27T09:24:27.782Z,51.03
2023-06-27T09:25:27.875Z,50.58
2023-06-27T09:26:28.022Z,53.14
2023-06-27T09:27:28.132Z,49.48
2023-06-27T09:28:28.239Z,49.08
2023-06-27T09:29:28.422Z,49.94
2023-06-27T09:30:28.530Z,50.20
2023-06-27T09:31:28.668Z,51.20
2023-06-27T09:32:28.794Z,50.95
2023-06-27T09:33:28.859Z,49.25
2023-06-27T09:34:28.957Z,50.90
2023-06-27T09:35:58.905Z,49.14
2023-06-27T09:39:29.680Z,50.40
2023-06-27T09:40:29.736Z,50.69
2023-06-27T09:41:29.880Z,50.75
2023-06-27T09:42:30.016Z,50.31
2023-06-27T09:43:30.117Z,50.37
2023-06-27T09:44:30.477Z,50.33
2023-06-27T09:45:30.407Z,49.61
2023-06-27T09:46:30.677Z,50.16
2023-06-27T09:47:30.697Z,50.48
2023-06-27T09:48:30.780Z,49.14
2023-06-27T09:49:30.988Z,47.53
2023-06-27T09:50:31.039Z,47.69
2023-06-27T09:51:31.196Z,48.74
2023-06-27T09:52:31.388Z,48.69
2023-06-27T09:53:32.415Z,49.61
2023-06-27T09:54:31.628Z,50.06
2023-06-27T09:55:31.742Z,49.03
2023-06-27T09:56:31.833Z,49.40
2023-06-27T09:57:31.974Z,49.04
2023-06-27T09:58:32.157Z,49.48
2023-06-27T09:59:33.511Z,49.38
2023-06-27T10:00:32.395Z,50.30
2023-06-27T10:01:32.492Z,50.65
2023-06-27T10:02:32.674Z,50.54
2023-06-27T10:03:32.768Z,51.45
2023-06-27T10:04:39.731Z,50.82
2023-06-27T10:05:35.763Z,50.45
2023-06-27T10:06:33.162Z,50.77
2023-06-27T10:07:33.273Z,49.02
2023-06-27T10:08:33.383Z,49.57
2023-06-27T10:09:33.511Z,48.53
2023-06-27T10:10:33.615Z,50.07
2023-06-27T10:11:33.716Z,47.53
2023-06-27T10:12:33.823Z,47.98
2023-06-27T10:13:33.969Z,46.87
2023-06-27T10:14:34.114Z,46.48
2023-06-27T10:15:34.209Z,46.17
2023-06-27T10:16:34.309Z,46.05
2023-06-27T10:17:34.444Z,45.85
2023-06-27T10:18:34.529Z,46.37
2023-06-27T10:19:34.703Z,45.02
2023-06-27T10:20:34.777Z,45.09
2023-06-27T10:21:34.893Z,45.10
2023-06-27T10:22:35.022Z,45.90
2023-06-27T10:23:35.125Z,45.66
2023-06-27T10:24:35.231Z,44.78
2023-06-27T10:25:35.440Z,44.83
2023-06-27T10:26:35.443Z,44.92
2023-06-27T10:27:35.578Z,45.43
2023-06-27T10:28:35.674Z,45.23
2023-06-27T10:29:35.781Z,44.08
2023-06-27T10:30:37.218Z,44.24
2023-06-27T10:31:35.980Z,44.87
2023-06-27T10:32:36.116Z,44.82
2023-06-27T10:33:36.210Z,43.98
2023-06-27T10:34:36.329Z,44.69
2023-06-27T10:35:36.451Z,44.89
2023-06-27T10:36:36.578Z,45.67
2023-06-27T10:37:36.709Z,45.70
2023-06-27T10:38:36.810Z,45.89
2023-06-27T10:39:36.960Z,46.93
2023-06-27T10:40:37.083Z,48.00
2023-06-27T10:41:37.196Z,47.66
2023-06-27T10:42:37.296Z,46.85
2023-06-27T10:43:37.432Z,45.23
2023-06-27T10:44:37.599Z,44.97
2023-06-27T10:45:37.808Z,45.18
2023-06-27T10:46:37.814Z,46.07
2023-06-27T10:47:37.923Z,48.34
2023-06-27T10:48:38.001Z,47.24
2023-06-27T10:49:38.152Z,46.65
2023-06-27T10:50:38.248Z,46.18
2023-06-27T10:51:38.351Z,46.39
2023-06-27T10:52:38.457Z,46.54
2023-06-27T10:53:38.576Z,47.48
2023-06-27T10:54:38.709Z,46.63
2023-06-27T10:55:38.896Z,46.34
2023-06-27T10:56:38.976Z,47.17
2023-06-27T10:57:39.081Z,47.45
2023-06-27T10:58:39.204Z,46.56
2023-06-27T10:59:39.347Z,46.58
2023-06-27T11:00:39.459Z,45.70
2023-06-27T11:01:39.656Z,46.17
2023-06-27T11:02:39.876Z,45.91
2023-06-27T11:03:39.980Z,44.78
2023-06-27T11:04:40.082Z,44.90
2023-06-27T11:05:40.108Z,44.19
2023-06-27T11:06:40.170Z,43.66
2023-06-27T11:07:40.319Z,44.84
2023-06-27T11:08:40.389Z,44.37
2023-06-27T11:09:40.595Z,45.05
2023-06-27T11:10:40.926Z,46.27
2023-06-27T11:11:40.806Z,47.45
2023-06-27T11:12:40.911Z,48.72
2023-06-27T11:13:41.214Z,46.21
2023-06-27T11:14:41.167Z,46.61
2023-06-27T11:15:41.287Z,46.41
2023-06-27T11:16:41.521Z,45.82
2023-06-27T11:17:41.569Z,45.61
2023-06-27T11:18:41.658Z,45.75
2023-06-27T11:19:41.825Z,44.93
2023-06-27T11:20:42.416Z,45.26
2023-06-27T11:21:41.997Z,45.52
2023-06-27T11:22:42.106Z,44.79
2023-06-27T11:23:42.263Z,44.72
2023-06-27T11:24:42.364Z,43.73
2023-06-27T11:25:42.580Z,43.30
2023-06-27T11:26:42.569Z,43.71
2023-06-27T11:27:42.670Z,43.62
2023-06-27T11:28:42.766Z,44.09
2023-06-27T11:29:42.940Z,44.16
2023-06-27T11:30:43.336Z,44.27
2023-06-27T11:31:43.171Z,44.61
2023-06-27T11:32:43.275Z,44.88
2023-06-27T11:33:43.394Z,45.47
2023-06-27T11:34:43.517Z,45.41
2023-06-27T11:35:43.647Z,45.18
2023-06-27T11:36:43.753Z,46.05
2023-06-27T11:37:43.858Z,45.62
2023-06-27T11:38:44.005Z,44.92
2023-06-27T11:39:44.124Z,44.76
2023-06-27T11:40:44.369Z,44.64
2023-06-27T11:41:44.385Z,44.64
2023-06-27T11:42:44.502Z,44.77
2023-06-27T11:43:44.616Z,44.51
2023-06-27T11:44:44.775Z,44.45
2023-06-27T11:45:44.824Z,44.43
2023-06-27T11:46:44.924Z,45.10
2023-06-27T11:47:45.091Z,45.56
2023-06-27T11:48:45.159Z,45.14
2023-06-27T11:49:45.306Z,45.35
2023-06-27T11:50:45.354Z,46.08
2023-06-27T11:51:45.534Z,46.02
2023-06-27T11:52:45.640Z,45.48
2023-06-27T11:53:45.772Z,44.61
2023-06-27T11:54:45.933Z,44.74
2023-06-27T11:55:46.043Z,44.69
2023-06-27T11:56:46.148Z,44.97
2023-06-27T11:57:46.247Z,45.93
2023-06-27T11:58:46.372Z,45.40
2023-06-27T11:59:46.515Z,45.29
2023-06-27T12:00:46.614Z,45.93
2023-06-27T12:01:46.842Z,45.81
2023-06-27T12:02:46.933Z,46.55
2023-06-27T12:03:47.165Z,46.02
2023-06-27T12:04:47.163Z,46.82
2023-06-27T12:05:47.415Z,46.53
2023-06-27T12:06:47.433Z,47.05
2023-06-27T12:07:47.526Z,47.46
2023-06-27T12:08:47.630Z,46.46
2023-06-27T12:09:47.772Z,47.17
2023-06-27T12:10:47.886Z,46.94
2023-06-27T12:11:47.981Z,46.74
2023-06-27T12:12:48.082Z,47.46
2023-06-27T12:13:48.175Z,47.27
2023-06-27T12:14:48.415Z,46.90
2023-06-27T12:15:48.452Z,47.30
2023-06-27T12:16:48.622Z,47.41
2023-06-27T12:17:48.760Z,47.36
2023-06-27T12:18:48.846Z,47.53
2023-06-27T12:19:48.975Z,47.54
2023-06-27T12:20:49.086Z,47.83
2023-06-27T12:21:49.191Z,48.02
2023-06-27T12:22:49.302Z,48.18
2023-06-27T12:23:49.447Z,48.48
2023-06-27T12:24:49.592Z,48.03
2023-06-27T12:25:49.653Z,48.17
2023-06-27T12:26:49.885Z,47.95
2023-06-27T12:27:49.874Z,47.50
2023-06-27T12:28:49.974Z,46.68
2023-06-27T12:29:50.193Z,47.26
2023-06-27T12:30:50.285Z,47.25
2023-06-27T12:31:50.386Z,47.06
2023-06-27T12:32:50.517Z,47.28
2023-06-27T12:33:50.604Z,47.15
2023-06-27T12:34:50.766Z,46.83
2023-06-27T12:35:50.821Z,46.43
2023-06-27T12:36:51.055Z,46.92
2023-06-27T12:37:51.069Z,46.59
2023-06-27T12:38:51.179Z,45.92
2023-06-27T12:39:51.332Z,45.72
2023-06-27T12:40:51.399Z,45.54
2023-06-27T12:41:51.590Z,44.44
2023-06-27T12:42:51.649Z,44.83
2023-06-27T12:43:51.776Z,44.75
2023-06-27T12:44:51.871Z,44.27
2023-06-27T12:45:51.969Z,44.75
2023-06-27T12:46:52.073Z,42.37
2023-06-27T12:47:52.246Z,42.13
2023-06-27T12:48:52.322Z,42.34
2023-06-27T12:49:52.508Z,44.10
2023-06-27T12:50:52.548Z,43.05
2023-06-27T12:51:52.721Z,42.31
2023-06-27T12:52:52.846Z,42.12
2023-06-27T12:53:52.971Z,42.41
2023-06-27T12:54:53.041Z,42.73
2023-06-27T12:55:53.162Z,43.36
2023-06-27T12:56:53.267Z,43.47